createdAt,value
2018-07-31T04:42:54.429Z,87.90
2018-07-31T04:45:22.586Z,87.40
2018-07-31T04:47:50.757Z,87.20
2018-07-31T04:50:19.505Z,86.70
2018-07-31T04:52:48.142Z,86.50
2018-07-31T04:55:16.322Z,86.50
2018-07-31T04:57:44.566Z,86.50
2018-07-31T05:00:12.730Z,86.50
2018-07-31T05:02:40.889Z,86.50
2018-07-31T05:05:09.070Z,86.20
2018-07-31T05:07:39.369Z,86.00
2018-07-31T05:10:11.506Z,86.00
2018-07-31T05:12:40.390Z,85.70
2018-07-31T05:15:08.638Z,85.50
2018-07-31T05:17:37.961Z,85.10
2018-07-31T05:20:06.698Z,85.40
2018-07-31T05:22:34.910Z,85.20
2018-07-31T05:25:03.133Z,83.90
2018-07-31T05:27:31.359Z,83.30
2018-07-31T05:29:59.548Z,82.70
2018-07-31T05:32:35.571Z,81.90
2018-07-31T05:35:04.303Z,82.30
2018-07-31T05:37:32.510Z,82.00
2018-07-31T05:40:00.716Z,81.90
2018-07-31T05:42:28.912Z,81.60
2018-07-31T05:44:57.107Z,81.60
2018-07-31T05:47:25.283Z,81.30
2018-07-31T05:49:53.459Z,80.40
2018-07-31T05:52:21.644Z,80.00
2018-07-31T05:54:50.043Z,79.90
2018-07-31T05:57:18.298Z,79.40
2018-07-31T05:59:46.427Z,79.20
2018-07-31T06:02:15.132Z,79.90
2018-07-31T06:04:43.479Z,79.80
2018-07-31T06:07:11.740Z,79.60
2018-07-31T06:09:40.040Z,78.60
2018-07-31T06:12:08.196Z,77.50
2018-07-31T06:14:36.364Z,76.40
2018-07-31T06:17:04.552Z,75.80
2018-07-31T06:19:32.767Z,75.80
2018-07-31T06:22:00.912Z,75.40
2018-07-31T06:24:29.096Z,75.00
2018-07-31T06:26:57.390Z,75.60
2018-07-31T06:29:25.575Z,74.90
2018-07-31T06:31:53.827Z,75.00
2018-07-31T06:34:22.064Z,73.90
2018-07-31T06:36:50.372Z,73.50
2018-07-31T06:39:18.548Z,72.50
2018-07-31T06:41:46.793Z,73.20
2018-07-31T06:44:15.010Z,71.60
2018-07-31T06:46:43.273Z,70.90
2018-07-31T06:49:11.445Z,70.00
2018-07-31T06:51:39.608Z,69.30
2018-07-31T06:54:07.787Z,68.70
2018-07-31T06:56:35.989Z,67.90
2018-07-31T06:59:04.179Z,68.20
2018-07-31T07:01:32.412Z,67.50
2018-07-31T07:04:00.604Z,66.90
2018-07-31T07:06:28.960Z,67.40
2018-07-31T07:08:57.152Z,67.80
2018-07-31T07:11:25.361Z,67.50
2018-07-31T07:13:53.560Z,66.20
2018-07-31T07:16:21.809Z,65.00
2018-07-31T07:18:50.033Z,64.30
2018-07-31T07:21:18.360Z,63.60
2018-07-31T07:23:46.557Z,64.10
2018-07-31T07:26:14.701Z,64.30
2018-07-31T07:28:42.917Z,63.50
2018-07-31T07:31:11.121Z,64.70
2018-07-31T07:33:39.379Z,65.10
2018-07-31T07:36:07.549Z,64.80
2018-07-31T07:38:35.845Z,64.10
2018-07-31T07:41:04.638Z,64.00
2018-07-31T07:43:32.841Z,63.00
2018-07-31T07:46:01.033Z,63.00
2018-07-31T07:48:29.340Z,62.40
2018-07-31T07:50:57.500Z,61.50
2018-07-31T07:53:25.753Z,61.50
2018-07-31T07:55:54.029Z,61.70
2018-07-31T07:58:22.217Z,61.70
2018-07-31T08:00:50.492Z,61.60
2018-07-31T08:03:18.776Z,60.90
2018-07-31T08:08:15.189Z,60.40
2018-07-31T08:10:43.849Z,60.00
2018-07-31T08:13:12.361Z,60.00
2018-07-31T08:15:40.658Z,59.30
2018-07-31T08:18:08.849Z,59.60
2018-07-31T08:20:37.031Z,59.80
2018-07-31T08:23:05.309Z,59.80
2018-07-31T08:25:33.536Z,58.80
2018-07-31T08:28:01.798Z,58.50
2018-07-31T08:30:29.998Z,58.50
2018-07-31T08:32:58.242Z,57.00
2018-07-31T08:35:27.154Z,56.70
2018-07-31T08:37:55.373Z,55.90
2018-07-31T08:40:23.581Z,54.80
2018-07-31T08:42:51.813Z,54.20
2018-07-31T08:45:19.997Z,54.60
2018-07-31T08:47:48.269Z,54.60
2018-07-31T08:52:44.486Z,53.20
2018-07-31T08:55:12.650Z,53.40
2018-07-31T08:57:40.842Z,52.70
2018-07-31T09:00:09.630Z,51.60
2018-07-31T09:02:37.849Z,51.00
2018-07-31T09:05:06.090Z,52.30
2018-07-31T09:07:34.410Z,52.30
2018-07-31T09:10:02.585Z,53.00
2018-07-31T09:12:30.754Z,52.30
2018-07-31T09:14:58.978Z,51.80
2018-07-31T09:17:27.176Z,51.40
2018-07-31T09:19:55.374Z,52.10
2018-07-31T09:22:23.584Z,51.80
2018-07-31T09:24:51.876Z,52.30
2018-07-31T09:27:20.083Z,53.30
2018-07-31T09:32:20.069Z,53.10
2018-07-31T09:34:48.284Z,52.90
2018-07-31T09:37:16.954Z,53.00
2018-07-31T09:39:45.151Z,51.20
2018-07-31T09:42:13.326Z,50.40
2018-07-31T09:44:41.583Z,50.80
2018-07-31T09:47:09.914Z,50.00
2018-07-31T09:49:38.111Z,48.60
2018-07-31T09:52:06.846Z,47.40
2018-07-31T09:54:35.081Z,47.30
2018-07-31T09:57:03.480Z,47.60
2018-07-31T09:59:31.679Z,46.80
2018-07-31T10:01:59.855Z,46.60
2018-07-31T10:04:28.059Z,44.40
2018-07-31T10:06:56.283Z,44.70
2018-07-31T10:09:24.467Z,45.30
2018-07-31T10:11:52.713Z,45.50
2018-07-31T10:14:20.911Z,46.70
2018-07-31T10:16:49.091Z,47.60
2018-07-31T10:19:17.315Z,48.80
2018-07-31T10:21:45.495Z,48.60
2018-07-31T10:24:13.660Z,47.40
2018-07-31T10:26:41.844Z,47.60
2018-07-31T10:29:10.594Z,46.00
2018-07-31T10:31:38.804Z,47.00
2018-07-31T10:34:07.335Z,47.70
2018-07-31T10:36:35.616Z,47.60
2018-07-31T10:39:05.839Z,47.60
2018-07-31T10:41:34.028Z,48.20
2018-07-31T10:44:02.341Z,48.10
2018-07-31T10:46:30.477Z,48.80
2018-07-31T10:48:58.799Z,47.70
2018-07-31T10:51:26.937Z,46.50
2018-07-31T10:53:55.102Z,45.20
2018-07-31T10:56:23.336Z,44.20
2018-07-31T10:58:51.536Z,43.20
2018-07-31T11:01:19.716Z,43.10
2018-07-31T11:03:47.976Z,43.00
2018-07-31T11:06:16.217Z,42.50
2018-07-31T11:08:44.363Z,42.20
2018-07-31T11:11:12.577Z,42.50
2018-07-31T11:13:40.828Z,42.00
2018-07-31T11:31:06.389Z,42.00
2018-07-31T11:33:34.597Z,40.60
2018-07-31T11:36:02.773Z,40.60
2018-07-31T11:38:31.017Z,39.60
2018-07-31T11:40:59.161Z,39.00
2018-07-31T11:43:27.345Z,39.10
2018-07-31T11:45:55.604Z,39.20
2018-07-31T11:48:23.779Z,38.50
2018-07-31T11:50:51.973Z,38.70
2018-07-31T11:53:20.165Z,39.20
2018-07-31T11:55:48.385Z,37.70
2018-07-31T11:58:16.557Z,38.50
2018-07-31T12:00:44.793Z,38.60
2018-07-31T12:03:12.973Z,37.90
2018-07-31T12:05:41.157Z,37.10
2018-07-31T12:08:09.417Z,36.70
2018-07-31T12:10:37.679Z,36.30
2018-07-31T12:13:05.886Z,36.30
2018-07-31T12:15:34.082Z,36.30
2018-07-31T12:18:02.366Z,36.30
2018-07-31T12:20:30.542Z,36.80
2018-07-31T12:22:58.766Z,37.10
2018-07-31T12:25:26.931Z,36.70
2018-07-31T12:27:55.414Z,37.40
2018-07-31T12:30:32.802Z,38.00
2018-07-31T12:33:03.911Z,38.30
2018-07-31T12:47:52.042Z,38.80
2018-07-31T12:50:20.232Z,37.30
2018-07-31T12:52:48.418Z,37.30
2018-07-31T12:55:16.634Z,37.10
2018-07-31T12:57:44.846Z,37.80
2018-07-31T13:00:13.027Z,38.40
2018-07-31T13:22:35.302Z,39.10
2018-07-31T13:25:03.555Z,39.10
2018-07-31T13:27:31.851Z,39.40
2018-07-31T13:30:00.114Z,39.90
2018-07-31T13:32:28.310Z,40.60
2018-07-31T13:34:56.563Z,40.90
2018-07-31T13:37:24.915Z,41.10
2018-07-31T13:39:53.158Z,41.70
2018-07-31T13:42:21.439Z,41.50
2018-07-31T13:44:49.657Z,41.20
2018-07-31T13:47:17.902Z,41.00
2018-07-31T13:49:46.067Z,41.50
2018-07-31T13:52:14.275Z,41.30
2018-07-31T13:54:42.467Z,42.00
2018-07-31T13:57:10.856Z,41.70
2018-07-31T13:59:39.068Z,41.20
2018-07-31T14:02:07.404Z,41.40
2018-07-31T14:04:35.604Z,41.30
2018-07-31T14:07:03.910Z,41.40
2018-07-31T14:09:32.128Z,41.10
2018-07-31T14:12:00.364Z,40.60
2018-07-31T14:14:28.548Z,39.70
2018-07-31T14:16:56.769Z,40.00
2018-07-31T14:19:25.012Z,39.70
2018-07-31T14:21:53.204Z,38.90
2018-07-31T14:24:21.624Z,39.30
2018-07-31T14:31:45.676Z,39.90
2018-07-31T14:39:11.261Z,41.50
2018-07-31T14:41:39.596Z,40.80
2018-07-31T14:44:07.833Z,39.20
2018-07-31T14:46:36.056Z,39.10
2018-07-31T14:49:04.237Z,39.30
2018-07-31T14:51:32.464Z,39.20
2018-07-31T14:54:00.651Z,39.00
2018-07-31T14:56:28.899Z,38.40
2018-07-31T14:58:57.107Z,38.50
2018-07-31T15:16:13.310Z,39.50
2018-07-31T15:18:41.537Z,38.60
2018-07-31T15:21:09.804Z,38.70
2018-07-31T15:23:37.999Z,38.80
2018-07-31T15:26:06.239Z,38.40
2018-07-31T15:31:02.378Z,38.30
2018-07-31T16:00:38.482Z,43.70
2018-07-31T16:03:06.701Z,45.60
2018-07-31T16:05:34.894Z,44.70
2018-07-31T16:08:03.065Z,45.60
2018-07-31T16:10:31.322Z,45.60
2018-07-31T16:12:59.534Z,45.40
2018-07-31T16:15:27.746Z,46.20
2018-07-31T16:17:56.147Z,46.30
2018-07-31T16:20:24.474Z,46.30
2018-07-31T16:22:52.888Z,46.20
2018-07-31T17:27:01.051Z,50.40
2018-07-31T17:29:29.387Z,50.10
2018-07-31T17:31:57.675Z,49.80
2018-07-31T17:34:25.883Z,49.90
2018-07-31T17:36:54.071Z,49.80
2018-07-31T17:39:22.360Z,49.60
2018-07-31T17:41:50.539Z,49.50
2018-07-31T17:44:18.719Z,49.60
2018-07-31T17:46:47.604Z,49.70
2018-07-31T17:49:15.832Z,49.90
2018-07-31T17:51:44.060Z,50.10
2018-07-31T17:54:12.284Z,50.20
2018-07-31T18:04:05.173Z,50.30
2018-07-31T18:06:33.339Z,49.90
2018-07-31T18:09:01.626Z,49.70
2018-07-31T21:26:36.627Z,55.40
2018-07-31T21:29:04.887Z,56.30
2018-07-31T21:31:33.051Z,56.70
2018-07-31T21:34:01.231Z,56.70
2018-07-31T21:36:29.406Z,56.90
2018-07-31T21:38:57.601Z,57.00
2018-07-31T21:41:25.819Z,56.90
2018-07-31T21:43:53.987Z,57.20
2018-07-31T21:46:22.187Z,57.50
2018-07-31T21:48:50.391Z,57.10
2018-07-31T21:51:18.683Z,57.70
2018-07-31T21:53:47.858Z,57.50
2018-07-31T21:56:16.060Z,57.40
2018-07-31T21:58:44.223Z,57.40
2018-07-31T22:01:12.418Z,57.50
2018-07-31T22:03:40.614Z,57.50
2018-07-31T22:06:08.890Z,57.80
2018-07-31T22:08:37.586Z,58.00
2018-07-31T22:11:06.106Z,58.50
2018-07-31T22:16:02.234Z,58.60
2018-07-31T22:18:30.458Z,58.50
2018-07-31T22:20:58.638Z,58.70
2018-07-31T22:23:26.850Z,58.70
2018-07-31T22:25:55.405Z,59.10
2018-07-31T22:28:23.599Z,59.00
2018-07-31T22:30:52.559Z,58.60
2018-07-31T22:33:20.779Z,58.90
2018-07-31T22:35:49.174Z,59.10
2018-07-31T22:38:17.384Z,59.40
2018-07-31T22:40:45.591Z,60.00
2018-07-31T22:43:13.775Z,60.40
2018-07-31T22:45:41.959Z,60.80
2018-07-31T22:48:10.138Z,60.70
2018-07-31T22:50:39.156Z,60.60
2018-07-31T22:53:07.351Z,60.50
2018-07-31T22:55:35.599Z,60.60
2018-07-31T22:58:03.870Z,60.60
2018-07-31T23:00:32.019Z,60.80
2018-07-31T23:03:00.260Z,61.10
2018-07-31T23:05:28.480Z,61.60
2018-07-31T23:07:56.743Z,61.80
2018-07-31T23:10:24.916Z,61.60
2018-07-31T23:15:21.552Z,62.00
2018-07-31T23:17:50.221Z,62.20
2018-07-31T23:20:18.403Z,62.90
2018-07-31T23:22:49.727Z,63.40
2018-07-31T23:25:17.960Z,64.10
2018-07-31T23:27:46.195Z,63.40
2018-07-31T23:30:14.375Z,63.30
2018-07-31T23:32:43.771Z,63.40
2018-07-31T23:35:11.952Z,63.40
2018-07-31T23:37:40.165Z,63.60
2018-07-31T23:40:08.356Z,63.80
2018-07-31T23:45:04.845Z,64.10
2018-07-31T23:47:33.077Z,64.80
2018-07-31T23:50:01.814Z,64.20
2018-07-31T23:52:30.422Z,65.60
2018-07-31T23:54:58.713Z,65.20
2018-07-31T23:57:26.922Z,65.40
2018-07-31T23:59:56.013Z,65.60
